Time;durP1;ratioP1;P1;durP2;ratioP2;P2;SDS_P1;SDS_P2;PMS_P1;PMS_P2;Temp;Humidity;BMP_temperature;BMP_pressure;BME280_temperature;BME280_humidity;BME280_pressure;Samples;Min_cycle;Max_cycle;Signal;HPM_P1;HPM_P2
2023/04/15 00:02:31;;;;;;;45.30;35.80;;;;;;;11.41;100.00;98902.10;179944;1269;59517;-87
2023/04/15 00:06:36;;;;;;;48.20;38.70;;;;;;;11.47;100.00;98893.45;179871;1270;44145;-87
2023/04/15 00:10:42;;;;;;;47.30;38.40;;;;;;;11.53;100.00;98893.23;179881;1270;43861;-87
2023/04/15 00:14:46;;;;;;;48.00;37.80;;;;;;;11.56;100.00;98892.52;180027;1270;44143;-87
2023/04/15 00:18:50;;;;;;;57.30;42.40;;;;;;;11.56;100.00;98890.76;179814;1271;44208;-86
2023/04/15 00:22:53;;;;;;;49.70;39.80;;;;;;;11.58;100.00;98884.09;179819;1270;60115;-87
2023/04/15 00:26:57;;;;;;;49.90;37.00;;;;;;;11.63;100.00;98884.53;179852;1270;44081;-88
2023/04/15 00:31:01;;;;;;;46.90;36.10;;;;;;;11.64;100.00;98883.13;179677;1270;43923;-87
2023/04/15 00:35:05;;;;;;;51.30;36.20;;;;;;;11.66;100.00;98880.23;179823;1269;44099;-87
2023/04/15 00:39:08;;;;;;;42.50;31.70;;;;;;;11.70;100.00;98876.11;179732;1269;44143;-88
2023/04/15 00:43:11;;;;;;;41.60;32.60;;;;;;;11.70;100.00;98872.54;179645;1270;60526;-88
2023/04/15 00:47:16;;;;;;;49.40;35.30;;;;;;;11.74;100.00;98873.77;179701;1270;43801;-86
2023/04/15 00:51:19;;;;;;;43.90;30.10;;;;;;;11.72;100.00;98872.70;179727;1270;44129;-87
2023/04/15 00:55:22;;;;;;;47.70;35.00;;;;;;;11.70;100.00;98869.31;179961;1270;44311;-88
2023/04/15 00:59:26;;;;;;;43.80;30.40;;;;;;;11.74;100.00;98870.54;179839;1270;44066;-88
2023/04/15 01:03:30;;;;;;;41.10;30.60;;;;;;;11.74;100.00;98872.17;179923;1270;58326;-88
2023/04/15 01:07:33;;;;;;;35.10;25.30;;;;;;;11.73;100.00;98870.25;179731;1269;44239;-88
2023/04/15 01:11:37;;;;;;;36.80;26.80;;;;;;;11.72;100.00;98869.27;179837;1270;44217;-87
2023/04/15 01:15:41;;;;;;;30.80;26.30;;;;;;;11.72;100.00;98867.34;179696;1273;43993;-84
2023/04/15 01:19:45;;;;;;;25.60;20.60;;;;;;;11.72;100.00;98865.22;179948;1267;43766;-89
2023/04/15 01:23:51;;;;;;;26.30;21.00;;;;;;;11.70;100.00;98866.91;180037;1267;60247;-87
2023/04/15 01:27:54;;;;;;;30.70;20.00;;;;;;;11.71;100.00;98865.38;180141;1269;43914;-88
2023/04/15 01:31:58;;;;;;;21.70;17.80;;;;;;;11.75;100.00;98868.98;180078;1267;43776;-87
2023/04/15 01:36:02;;;;;;;26.60;18.80;;;;;;;11.77;100.00;98862.00;180106;1267;43879;-88
2023/04/15 01:40:06;;;;;;;20.20;15.50;;;;;;;11.72;100.00;98865.94;180053;1270;48172;-87
2023/04/15 01:44:10;;;;;;;21.20;17.10;;;;;;;11.75;100.00;98862.80;180094;1267;58408;-88
2023/04/15 01:48:13;;;;;;;16.10;12.60;;;;;;;11.77;100.00;98862.77;180149;1267;44046;-89
2023/04/15 01:52:17;;;;;;;19.40;13.70;;;;;;;11.79;100.00;98856.11;179903;1268;43762;-89
2023/04/15 01:56:20;;;;;;;15.10;11.50;;;;;;;11.79;100.00;98864.67;180099;1267;44053;-87
2023/04/15 02:00:24;;;;;;;24.20;14.50;;;;;;;11.80;100.00;98866.51;180122;1267;44287;-87
2023/04/15 02:04:27;;;;;;;16.90;11.70;;;;;;;11.74;100.00;98866.11;180035;1267;58333;-87
2023/04/15 02:08:31;;;;;;;13.30;11.10;;;;;;;11.70;100.00;98866.02;180048;1267;43801;-88
2023/04/15 02:12:35;;;;;;;13.30;10.50;;;;;;;11.70;100.00;98870.81;180073;1267;44118;-87
2023/04/15 02:16:38;;;;;;;14.70;11.80;;;;;;;11.71;100.00;98871.34;179872;1267;44299;-89
2023/04/15 02:20:45;;;;;;;14.60;11.60;;;;;;;11.73;100.00;98872.73;180357;1267;43925;-87
2023/04/15 02:24:49;;;;;;;14.70;11.30;;;;;;;11.74;100.00;98873.20;179849;1271;59644;-88
2023/04/15 02:28:52;;;;;;;13.30;9.80;;;;;;;11.75;100.00;98864.67;180273;1267;44175;-87
2023/04/15 02:32:56;;;;;;;23.40;11.50;;;;;;;11.79;100.00;98865.94;179973;1267;43794;-86
2023/04/15 02:36:59;;;;;;;13.80;11.00;;;;;;;11.86;100.00;98867.09;179851;1268;44031;-87
2023/04/15 02:41:03;;;;;;;15.90;11.90;;;;;;;11.87;100.00;98864.62;180309;1272;44122;-87
2023/04/15 02:45:07;;;;;;;14.00;11.40;;;;;;;11.86;100.00;98862.83;180137;1267;58330;-86
2023/04/15 02:49:11;;;;;;;15.00;11.90;;;;;;;11.78;100.00;98867.26;179997;1267;44111;-88
2023/04/15 02:53:14;;;;;;;14.50;9.80;;;;;;;11.72;100.00;98871.11;180051;1267;43844;-87
2023/04/15 02:57:17;;;;;;;17.50;11.90;;;;;;;11.69;100.00;98876.90;180123;1268;43997;-90
2023/04/15 03:01:21;;;;;;;12.60;9.40;;;;;;;11.74;100.00;98874.96;179953;1268;50638;-88
2023/04/15 03:05:24;;;;;;;15.00;11.20;;;;;;;11.75;100.00;98872.39;180017;1267;60431;-87
2023/04/15 03:09:28;;;;;;;16.50;12.70;;;;;;;11.74;100.00;98879.06;180000;1270;44242;-88
2023/04/15 03:13:31;;;;;;;18.30;12.50;;;;;;;11.70;100.00;98873.81;180006;1267;43866;-87
2023/04/15 03:17:35;;;;;;;13.80;10.20;;;;;;;11.68;100.00;98876.30;180056;1267;44072;-86
2023/04/15 03:21:38;;;;;;;14.90;12.00;;;;;;;11.66;100.00;98877.10;180020;1267;44159;-86
2023/04/15 03:25:41;;;;;;;14.40;11.30;;;;;;;11.63;100.00;98882.45;180144;1269;59615;-88
2023/04/15 03:43:34;;;;;;;14.70;12.20;;;;;;;11.68;100.00;98901.92;162439;1270;44356;-90
2023/04/15 03:57:50;;;;;;;18.40;14.40;;;;;;;11.69;100.00;98911.86;180597;1269;44025;-88
2023/04/15 04:15:14;;;;;;;2.80;2.50;;;;;;;11.54;100.00;98946.21;179885;1269;43933;-91
2023/04/15 04:23:51;;;;;;;4.00;2.60;;;;;;;11.24;100.00;98960.88;160815;1267;44385;-90
2023/04/15 04:27:57;;;;;;;3.90;3.10;;;;;;;11.15;100.00;98967.06;180834;1266;44111;-90
2023/04/15 05:26:21;;;;;;;;;;;;;;;;;;;;;
2023/04/15 06:10:43;;;;;;;3.40;2.30;;;;;;;10.81;97.00;99063.42;180976;1264;44084;-89
2023/04/15 06:19:28;;;;;;;4.80;1.90;;;;;;;10.74;97.50;99087.54;168219;1266;45559;-90
2023/04/15 06:23:36;;;;;;;1.90;1.80;;;;;;;10.83;98.34;99097.73;180798;1265;43988;-90
2023/04/15 06:27:41;;;;;;;5.40;2.10;;;;;;;11.04;99.62;99103.58;180849;1264;57301;-91
2023/04/15 06:31:50;;;;;;;1.60;1.50;;;;;;;11.58;96.11;99105.39;180774;1264;44128;-91
2023/04/15 06:35:55;;;;;;;2.50;2.00;;;;;;;11.92;89.47;99106.47;180870;1264;43851;-90
2023/04/15 06:40:01;;;;;;;2.40;1.90;;;;;;;12.05;87.44;99112.19;180860;1264;44366;-90
2023/04/15 06:44:06;;;;;;;5.50;2.00;;;;;;;12.20;88.95;99120.33;180853;1263;43894;-90
2023/04/15 06:48:11;;;;;;;;;;;;;;;12.46;88.89;99125.02;180596;1264;60728;-89
2023/04/15 06:52:16;;;;;;;2.20;1.40;;;;;;;12.67;86.99;99131.17;180793;1263;43894;-90
2023/04/15 07:09:27;;;;;;;2.90;2.00;;;;;;;12.45;83.43;99149.05;176613;1263;58000;-90
2023/04/15 07:33:16;;;;;;;2.90;1.80;;;;;;;12.06;85.69;99166.23;177955;1266;58081;-90
2023/04/15 07:41:49;;;;;;;1.40;1.10;;;;;;;12.37;84.91;99174.34;180757;1267;43795;-90
2023/04/15 07:45:52;;;;;;;2.20;1.30;;;;;;;12.35;81.91;99181.54;180257;1267;45791;-88
2023/04/15 07:54:36;;;;;;;2.00;1.60;;;;;;;12.16;80.15;99190.81;170731;1264;59352;-89
2023/04/15 08:35:26;;;;;;;2.20;1.30;;;;;;;13.19;77.16;99206.15;171467;1263;45148;-91
2023/04/15 08:44:04;;;;;;;2.40;1.00;;;;;;;13.34;75.21;99214.44;179205;1267;43702;-86
2023/04/15 08:48:11;;;;;;;2.20;1.40;;;;;;;13.38;73.98;99218.30;180202;1267;43896;-86
2023/04/15 08:52:15;;;;;;;2.30;2.10;;;;;;;13.26;74.56;99225.84;180224;1266;44012;-87
2023/04/15 08:56:27;;;;;;;1.50;1.30;;;;;;;13.20;73.13;99230.02;180094;1266;44271;-83
2023/04/15 09:00:32;;;;;;;1.10;0.90;;;;;;;13.36;74.16;99233.08;180365;1264;59464;-84
2023/04/15 09:04:36;;;;;;;2.50;0.80;;;;;;;13.47;75.28;99229.44;180199;1266;44161;-86
2023/04/15 09:08:39;;;;;;;1.30;0.80;;;;;;;13.51;73.06;99237.20;180061;1266;44139;-84
2023/04/15 09:12:44;;;;;;;3.10;1.50;;;;;;;13.60;73.21;99241.55;180101;1267;43817;-86
2023/04/15 09:17:02;;;;;;;2.90;2.70;;;;;;;13.67;73.06;99241.70;180173;1267;43900;-87
2023/04/15 09:21:09;;;;;;;5.70;2.60;;;;;;;13.60;68.86;99248.48;180466;1265;60338;-87
2023/04/15 09:25:26;;;;;;;21.40;16.40;;;;;;;13.36;69.84;99252.77;180724;1267;46486;-87
2023/04/15 09:29:29;;;;;;;27.00;15.40;;;;;;;13.41;73.53;99261.58;180413;1266;44300;-87
2023/04/15 09:33:32;;;;;;;49.60;30.90;;;;;;;13.66;74.42;99250.86;180503;1266;43960;-88
2023/04/15 09:37:36;;;;;;;10.40;5.50;;;;;;;14.14;72.35;99255.12;180679;1267;44259;-86
2023/04/15 09:41:39;;;;;;;5.20;2.60;;;;;;;14.53;69.81;99253.20;180587;1266;59289;-86
2023/04/15 09:45:52;;;;;;;1.90;1.20;;;;;;;14.54;69.31;99255.65;180529;1264;45995;-86
2023/04/15 09:50:05;;;;;;;7.50;1.50;;;;;;;14.53;69.13;99252.95;180045;1261;46534;31
2023/04/15 09:54:12;;;;;;;0.80;0.70;;;;;;;14.61;68.81;99261.08;180078;1263;45207;31
2023/04/15 09:58:23;;;;;;;2.00;1.20;;;;;;;14.63;69.20;99260.91;180131;1269;45260;-87
2023/04/15 10:02:29;;;;;;;2.40;1.10;;;;;;;14.61;67.01;99266.14;180108;1270;59600;-87
2023/04/15 10:06:33;;;;;;;2.00;1.30;;;;;;;14.61;68.53;99267.46;180591;1266;44620;-84
2023/04/15 10:10:47;;;;;;;1.60;1.00;;;;;;;14.68;66.38;99267.39;180702;1266;84151;-61
2023/04/15 10:14:59;;;;;;;3.10;1.30;;;;;;;14.81;70.41;99268.98;172874;1268;84233;-61
2023/04/15 10:19:05;;;;;;;0.70;0.60;;;;;;;15.06;68.52;99271.66;180845;1268;43890;-62
2023/04/15 10:23:09;;;;;;;2.00;0.80;;;;;;;15.07;65.88;99276.87;180817;1270;58072;-61
2023/04/15 10:27:16;;;;;;;1.40;1.30;;;;;;;15.05;64.02;99278.98;180892;1267;43185;-62
2023/04/15 10:31:20;;;;;;;0.50;0.50;;;;;;;15.08;67.97;99281.59;180956;1267;43895;-62
2023/04/15 10:35:24;;;;;;;1.40;1.20;;;;;;;15.19;66.51;99280.63;180780;1270;43138;-61
2023/04/15 10:39:44;;;;;;;0.80;0.80;;;;;;;15.20;66.31;99282.46;180879;1269;43438;-62
2023/04/15 10:43:52;;;;;;;1.80;1.00;;;;;;;15.01;64.51;99276.36;180829;1268;58220;-61
2023/04/15 10:47:56;;;;;;;2.10;1.90;;;;;;;14.82;66.91;99273.75;180820;1270;43416;-61
2023/04/15 10:52:00;;;;;;;1.20;0.80;;;;;;;14.97;66.26;99275.67;180888;1269;43822;-61
2023/04/15 10:56:04;;;;;;;1.20;1.10;;;;;;;15.02;65.44;99276.70;180896;1268;43152;-61
2023/04/15 11:00:07;;;;;;;1.40;0.70;;;;;;;14.93;67.51;99277.59;173182;1269;10144322;-61
2023/04/15 11:04:11;;;;;;;0.50;0.50;;;;;;;14.93;68.03;99275.15;180856;1268;43933;-61
2023/04/15 11:08:15;;;;;;;1.70;0.70;;;;;;;15.09;68.19;99278.57;180865;1269;43101;-61
2023/04/15 11:12:18;;;;;;;3.20;1.60;;;;;;;15.31;66.64;99284.65;180881;1269;58243;-62
2023/04/15 11:16:21;;;;;;;1.30;0.50;;;;;;;15.53;66.37;99290.80;180869;1270;43695;-61
2023/04/15 11:20:25;;;;;;;3.20;1.40;;;;;;;15.62;63.95;99293.00;180911;1268;43653;-60
2023/04/15 11:29:17;;;;;;;28.90;15.90;;;;;;;15.73;61.42;99300.82;179358;1268;43839;-87
2023/04/15 11:33:22;;;;;;;9.70;4.60;;;;;;;15.69;62.07;99305.25;179947;1268;57970;-87
2023/04/15 11:37:31;;;;;;;4.10;1.40;;;;;;;15.45;61.09;99307.63;179741;1268;44043;-87
2023/04/15 11:41:35;;;;;;;4.30;3.10;;;;;;;15.45;61.86;99309.46;179911;1268;43805;-87
2023/04/15 11:45:59;;;;;;;12.20;7.60;;;;;;;15.46;62.84;99310.20;180028;1269;43810;-87
2023/04/15 11:50:22;;;;;;;1.90;1.20;;;;;;;15.20;64.75;99312.40;179774;1268;44206;-86
2023/04/15 11:54:25;;;;;;;10.70;7.60;;;;;;;15.11;64.25;99319.13;180122;1268;59308;-86
2023/04/15 11:58:29;;;;;;;11.20;7.00;;;;;;;15.13;64.23;99322.48;179959;1269;44265;-86
2023/04/15 12:02:35;;;;;;;11.80;6.20;;;;;;;15.02;64.93;99329.74;179947;1268;49613;-87
2023/04/15 12:06:40;;;;;;;8.00;5.00;;;;;;;14.93;65.65;99334.76;179805;1268;44008;-86
2023/04/15 12:10:43;;;;;;;2.70;2.00;;;;;;;14.94;63.54;99334.86;179674;1268;44263;-86
2023/04/15 12:14:46;;;;;;;0.40;0.40;;;;;;;14.86;65.29;99337.73;180120;1267;58669;-86
2023/04/15 12:18:57;;;;;;;1.10;0.70;;;;;;;14.89;64.58;99337.66;179678;1268;43776;-86
2023/04/15 12:23:07;;;;;;;4.80;2.70;;;;;;;14.89;64.15;99346.05;180111;1269;44170;-86
2023/04/15 12:27:11;;;;;;;1.30;1.10;;;;;;;14.82;63.61;99353.67;180116;1267;43902;-86
2023/04/15 12:31:14;;;;;;;6.40;3.70;;;;;;;14.68;63.36;99355.06;180288;1267;43918;-86
2023/04/15 12:35:20;;;;;;;4.70;2.20;;;;;;;14.72;63.82;99356.75;180012;1266;59593;-87
2023/04/15 12:39:29;;;;;;;9.50;7.40;;;;;;;14.73;62.58;99365.14;179874;1268;44055;-86
2023/04/15 12:43:32;;;;;;;10.20;7.10;;;;;;;14.81;63.95;99365.84;179953;1267;44301;-87
2023/04/15 12:47:36;;;;;;;73.40;55.70;;;;;;;14.81;62.58;99367.23;180203;1267;43718;-87
2023/04/15 12:51:39;;;;;;;56.70;38.20;;;;;;;14.90;62.73;99371.78;179962;1268;43907;-87
2023/04/15 12:55:42;;;;;;;11.50;8.10;;;;;;;15.09;62.54;99371.80;180005;1266;58029;-86
2023/04/15 12:59:46;;;;;;;3.80;2.80;;;;;;;15.23;61.96;99374.15;180195;1267;43877;-87
2023/04/15 13:04:10;;;;;;;3.20;1.50;;;;;;;15.18;61.68;99376.67;180657;1270;84928;-60
2023/04/15 13:08:14;;;;;;;0.80;0.60;;;;;;;15.18;61.46;99375.59;180534;1271;50396;-85
2023/04/15 13:12:18;;;;;;;2.10;1.60;;;;;;;15.14;62.21;99380.71;180497;1270;43852;-87
2023/04/15 13:16:22;;;;;;;1.50;1.40;;;;;;;15.18;62.33;99379.71;180512;1270;58372;-89
2023/04/15 13:20:26;;;;;;;2.00;1.40;;;;;;;15.29;63.09;99381.84;180599;1269;44047;-87
2023/04/15 13:24:29;;;;;;;5.20;4.40;;;;;;;15.40;61.73;99385.25;180354;1269;44383;-86
2023/04/15 13:28:33;;;;;;;2.60;1.90;;;;;;;15.48;62.75;99389.16;180488;1269;43922;-89
2023/04/15 13:32:37;;;;;;;2.40;1.20;;;;;;;15.56;63.00;99393.60;180483;1270;44039;-87
2023/04/15 13:36:40;;;;;;;3.00;1.70;;;;;;;15.66;63.10;99400.67;180616;1268;59273;-90
2023/04/15 13:45:06;;;;;;;5.60;4.70;;;;;;;15.94;59.74;99405.83;180241;1265;83840;-60
2023/04/15 13:49:14;;;;;;;2.10;1.70;;;;;;;15.96;61.89;99406.32;180928;1264;44674;-88
2023/04/15 13:53:55;;;;;;;2.30;1.60;;;;;;;15.97;61.80;99407.07;177058;1265;84070;-60
2023/04/15 13:57:58;;;;;;;2.30;1.80;;;;;;;16.01;61.86;99405.33;181073;1265;58044;-60
2023/04/15 14:02:01;;;;;;;3.60;2.70;;;;;;;16.03;60.57;99406.58;181010;1267;43158;-60
2023/04/15 14:06:06;;;;;;;1.50;1.00;;;;;;;16.01;62.29;99401.20;180984;1267;43717;-61
2023/04/15 14:10:11;;;;;;;2.90;1.30;;;;;;;15.99;63.86;99400.05;180925;1267;45055;-60
2023/04/15 14:14:17;;;;;;;0.60;0.50;;;;;;;15.89;60.66;99401.86;181083;1265;43056;-60
2023/04/15 14:18:20;;;;;;;2.00;1.10;;;;;;;15.91;60.79;99403.30;180954;1269;58062;-60
2023/04/15 14:22:23;;;;;;;1.40;1.10;;;;;;;15.90;61.65;99406.23;180992;1267;43769;-61
2023/04/15 14:26:26;;;;;;;1.10;0.90;;;;;;;15.83;58.54;99411.13;180616;1261;79208;-85
2023/04/15 14:30:29;;;;;;;1.90;1.30;;;;;;;15.82;56.51;99412.67;180367;1264;43840;-85
2023/04/15 14:34:32;;;;;;;1.30;0.80;;;;;;;15.88;57.03;99424.02;180561;1265;44153;-86
2023/04/15 14:38:37;;;;;;;1.60;1.20;;;;;;;15.96;57.21;99426.53;180470;1265;58925;-85
2023/04/15 14:42:40;;;;;;;1.80;1.00;;;;;;;16.05;56.65;99428.95;180600;1264;44175;-84
2023/04/15 14:46:43;;;;;;;1.90;1.00;;;;;;;16.16;55.70;99432.57;180553;1265;43831;-85
2023/04/15 14:50:47;;;;;;;2.10;1.30;;;;;;;16.24;55.33;99440.63;180561;1267;43737;-85
2023/04/15 14:54:50;;;;;;;0.90;0.80;;;;;;;16.19;59.40;99442.23;180594;1264;43876;-85
2023/04/15 14:58:53;;;;;;;1.20;0.90;;;;;;;16.28;58.77;99446.13;180577;1264;57593;-85
2023/04/15 15:02:56;;;;;;;2.30;0.80;;;;;;;16.47;57.01;99444.95;180409;1265;43964;-85
2023/04/15 15:06:59;;;;;;;2.60;2.00;;;;;;;16.65;57.97;99446.67;180416;1264;43911;-86
2023/04/15 15:11:02;;;;;;;1.70;1.00;;;;;;;16.57;57.29;99450.98;180475;1268;44177;-84
2023/04/15 15:15:06;;;;;;;1.10;0.90;;;;;;;16.50;59.33;99454.10;180339;1264;44755;-85
2023/04/15 15:19:29;;;;;;;2.30;1.40;;;;;;;16.64;58.86;99461.94;180399;1264;59091;-84
2023/04/15 15:23:33;;;;;;;1.30;1.20;;;;;;;16.80;56.72;99463.98;180493;1264;44245;-85
2023/04/15 15:27:36;;;;;;;2.00;1.00;;;;;;;16.79;55.11;99472.35;180579;1264;43812;-84
2023/04/15 15:31:40;;;;;;;2.10;1.30;;;;;;;16.78;56.05;99475.06;180350;1264;43917;-87
2023/04/15 15:35:43;;;;;;;2.80;1.60;;;;;;;16.80;58.31;99480.92;180541;1264;44071;-87
2023/04/15 15:39:47;;;;;;;1.30;1.20;;;;;;;16.72;56.50;99482.92;180339;1264;58339;-86
2023/04/15 15:43:52;;;;;;;1.30;0.90;;;;;;;16.69;55.61;99483.87;180372;1265;43825;-85
2023/04/15 15:47:57;;;;;;;1.80;0.80;;;;;;;16.61;55.81;99486.90;180469;1267;43766;-85
2023/04/15 15:52:00;;;;;;;1.50;1.40;;;;;;;16.65;55.71;99488.06;180377;1265;43861;-85
2023/04/15 15:56:04;;;;;;;1.50;1.00;;;;;;;16.76;57.47;99495.77;180441;1264;43951;-85
2023/04/15 16:00:08;;;;;;;1.90;0.60;;;;;;;16.82;56.11;99495.94;180113;1264;60455;-85
2023/04/15 16:04:14;;;;;;;1.40;1.20;;;;;;;16.81;53.96;99499.20;180456;1263;44286;-85
2023/04/15 16:08:19;;;;;;;6.10;2.30;;;;;;;16.85;53.77;99504.64;180269;1264;44210;-84
2023/04/15 16:12:22;;;;;;;1.50;1.10;;;;;;;16.77;54.33;99504.09;180375;1264;43876;-86
2023/04/15 16:16:26;;;;;;;2.10;1.40;;;;;;;16.78;55.38;99507.09;180692;1264;43902;-87
2023/04/15 16:20:30;;;;;;;1.60;1.20;;;;;;;16.83;55.36;99504.85;180498;1264;60787;-87
2023/04/15 16:24:33;;;;;;;3.10;1.50;;;;;;;16.87;57.09;99510.88;180501;1264;43885;-86
2023/04/15 16:28:37;;;;;;;2.20;1.40;;;;;;;16.92;58.57;99515.70;180430;1264;44044;-86
2023/04/15 16:32:41;;;;;;;2.00;0.90;;;;;;;16.86;56.33;99515.98;180457;1264;44240;-86
2023/04/15 16:36:44;;;;;;;1.40;1.10;;;;;;;16.88;55.94;99516.14;180544;1264;44201;-85
2023/04/15 16:40:48;;;;;;;2.30;1.30;;;;;;;16.69;56.87;99519.10;180505;1267;59620;-86
2023/04/15 16:44:51;;;;;;;2.50;1.30;;;;;;;16.41;56.39;99515.44;180569;1263;43966;-85
2023/04/15 16:48:55;;;;;;;1.20;0.90;;;;;;;16.24;58.36;99523.05;180408;1264;44638;-87
2023/04/15 16:52:58;;;;;;;1.30;1.20;;;;;;;16.12;60.10;99523.52;180454;1264;43811;-88
2023/04/15 16:57:02;;;;;;;0.90;0.70;;;;;;;16.03;59.39;99535.59;180227;1264;43883;-83
2023/04/15 17:01:05;;;;;;;2.70;1.50;;;;;;;15.93;59.36;99541.03;180518;1263;60635;-84
2023/04/15 17:05:08;;;;;;;3.80;1.80;;;;;;;15.83;60.30;99540.56;180692;1263;43851;-83
2023/04/15 17:09:11;;;;;;;1.20;1.10;;;;;;;15.71;60.00;99544.11;180499;1266;43812;-83
2023/04/15 17:13:14;;;;;;;0.90;0.70;;;;;;;15.56;58.69;99552.04;180251;1263;44021;-83
2023/04/15 17:17:19;;;;;;;1.40;0.80;;;;;;;15.39;59.16;99558.86;180589;1263;43868;-83
2023/04/15 17:21:22;;;;;;;3.60;1.50;;;;;;;15.20;60.17;99561.13;180387;1264;59526;-84
2023/04/15 17:25:25;;;;;;;3.00;1.80;;;;;;;15.00;63.20;99562.14;180248;1264;43952;-84
2023/04/15 17:29:29;;;;;;;4.70;2.50;;;;;;;14.54;68.22;99557.33;180384;1264;43988;-87
2023/04/15 17:33:32;;;;;;;5.00;2.90;;;;;;;14.23;69.30;99568.56;180533;1263;44219;-84
2023/04/15 17:37:55;;;;;;;7.00;4.80;;;;;;;13.91;69.09;99584.60;180422;1263;44397;-85
2023/04/15 17:41:58;;;;;;;5.90;3.60;;;;;;;13.64;68.65;99595.44;180467;1264;58283;-85
2023/04/15 17:46:01;;;;;;;8.30;5.40;;;;;;;13.40;67.19;99601.86;180590;1264;44019;-84
2023/04/15 17:50:05;;;;;;;11.30;5.80;;;;;;;13.22;67.10;99609.55;180369;1263;44040;-85
2023/04/15 17:54:09;;;;;;;39.80;23.40;;;;;;;13.07;67.21;99616.11;180545;1263;44084;-84
2023/04/15 17:58:12;;;;;;;59.40;35.50;;;;;;;12.91;67.76;99623.69;180568;1263;43773;-85
2023/04/15 18:02:16;;;;;;;38.00;24.20;;;;;;;12.76;68.73;99630.77;180670;1262;58048;-85
2023/04/15 18:06:20;;;;;;;24.20;16.80;;;;;;;12.61;69.38;99636.40;180720;1263;43984;-85
2023/04/15 18:10:24;;;;;;;16.30;11.50;;;;;;;12.46;69.36;99646.62;180343;1263;43814;-85
2023/04/15 18:14:27;;;;;;;17.10;10.60;;;;;;;12.36;69.30;99652.50;180613;1263;44313;-85
2023/04/15 18:18:37;;;;;;;15.50;10.90;;;;;;;12.27;69.52;99657.66;180480;1263;44045;-85
2023/04/15 18:22:41;;;;;;;18.90;14.50;;;;;;;12.19;70.22;99655.67;180423;1264;58532;-86
2023/04/15 18:26:45;;;;;;;26.00;19.20;;;;;;;12.11;70.46;99665.30;180299;1264;43923;-87
2023/04/15 18:30:51;;;;;;;44.40;31.50;;;;;;;12.05;70.82;99680.08;180480;1264;44082;-87
2023/04/15 18:34:55;;;;;;;62.00;38.40;;;;;;;11.98;71.10;99694.26;180363;1263;44116;-87
2023/04/15 18:38:58;;;;;;;60.00;35.70;;;;;;;11.93;71.28;99702.54;180520;1264;43782;-87
2023/04/15 18:43:02;;;;;;;27.90;19.60;;;;;;;11.90;71.10;99702.86;180441;1263;59325;-87
2023/04/15 18:47:05;;;;;;;34.80;20.60;;;;;;;11.89;70.91;99708.88;180669;1263;43877;-88
2023/04/15 18:51:09;;;;;;;25.70;15.80;;;;;;;11.87;70.76;99711.45;180616;1264;44784;-87
2023/04/15 18:55:13;;;;;;;20.60;12.90;;;;;;;11.89;70.76;99718.24;180420;1264;44537;-86
2023/04/15 18:59:19;;;;;;;31.60;21.40;;;;;;;11.90;70.89;99725.98;180241;1264;45033;-86
2023/04/15 19:03:32;;;;;;;13.10;10.00;;;;;;;11.85;74.72;99726.42;180368;1264;58193;-87
2023/04/15 19:07:36;;;;;;;11.00;8.20;;;;;;;11.61;80.41;99733.64;180408;1264;43908;-86
2023/04/15 19:11:39;;;;;;;15.20;8.90;;;;;;;11.40;80.72;99736.89;180493;1262;43943;-87
2023/04/15 19:15:42;;;;;;;13.10;8.00;;;;;;;11.33;81.31;99744.08;180629;1263;44194;-87
2023/04/15 19:19:46;;;;;;;13.00;9.40;;;;;;;11.30;81.08;99753.45;180415;1263;44152;-87
2023/04/15 19:23:49;;;;;;;27.30;18.20;;;;;;;11.26;80.71;99757.83;180303;1264;59121;-86
2023/04/15 19:27:52;;;;;;;16.70;12.20;;;;;;;11.24;80.25;99755.54;180475;1264;43950;-87
2023/04/15 19:31:56;;;;;;;17.00;10.30;;;;;;;11.27;80.63;99761.01;180354;1264;43934;-89
2023/04/15 19:36:04;;;;;;;13.90;10.00;;;;;;;11.34;81.25;99761.40;180331;1264;43810;-88
2023/04/15 19:40:08;;;;;;;14.90;8.90;;;;;;;11.36;81.71;99765.64;180537;1264;45068;-88
2023/04/15 19:44:12;;;;;;;16.10;9.50;;;;;;;11.31;82.96;99771.41;180249;1264;58150;-87
2023/04/15 19:48:16;;;;;;;11.40;8.50;;;;;;;11.18;84.39;99778.80;180350;1264;44209;-87
2023/04/15 19:52:19;;;;;;;15.10;9.80;;;;;;;11.02;84.78;99786.15;180458;1264;44042;-87
2023/04/15 19:56:22;;;;;;;17.20;9.40;;;;;;;10.93;84.81;99793.67;180384;1264;43925;-87
2023/04/15 20:00:26;;;;;;;11.50;9.20;;;;;;;10.97;85.22;99790.48;180438;1263;43845;-87
2023/04/15 20:04:29;;;;;;;9.20;7.80;;;;;;;10.98;85.85;99796.27;180292;1264;59512;-87
2023/04/15 20:08:33;;;;;;;10.80;8.20;;;;;;;10.96;85.92;99799.41;180409;1264;44977;-87
2023/04/15 20:12:39;;;;;;;9.70;6.60;;;;;;;10.91;88.49;99800.95;180493;1264;43895;-87
2023/04/15 20:16:54;;;;;;;10.30;8.50;;;;;;;10.78;90.38;99801.45;180376;1262;43931;-87
2023/04/15 20:20:58;;;;;;;11.40;7.40;;;;;;;10.68;90.68;99809.92;180464;1264;44037;-89
2023/04/15 20:25:02;;;;;;;12.20;8.70;;;;;;;10.61;92.66;99811.86;180396;1264;59103;-87
2023/04/15 20:29:05;;;;;;;11.80;8.40;;;;;;;10.55;93.18;99810.43;180324;1264;44182;-87
2023/04/15 20:33:09;;;;;;;12.80;9.20;;;;;;;10.51;93.91;99810.02;180474;1262;44028;-86
2023/04/15 20:37:13;;;;;;;15.60;10.40;;;;;;;10.47;94.54;99812.35;180462;1264;43894;-86
2023/04/15 20:41:16;;;;;;;13.60;10.10;;;;;;;10.40;95.55;99816.66;180532;1264;43851;-87
2023/04/15 20:45:19;;;;;;;15.70;10.60;;;;;;;10.30;97.05;99830.11;180429;1264;59302;-87
2023/04/15 20:49:23;;;;;;;16.70;11.20;;;;;;;10.22;98.40;99831.34;180455;1264;43997;-87
2023/04/15 20:53:26;;;;;;;19.20;13.90;;;;;;;10.19;96.93;99838.88;180349;1264;44129;-87
2023/04/15 20:57:29;;;;;;;18.90;11.70;;;;;;;10.12;97.70;99843.18;180312;1264;44200;-85
2023/04/15 21:01:33;;;;;;;19.50;12.40;;;;;;;9.99;98.86;99849.10;180587;1264;44067;-86
2023/04/15 21:05:36;;;;;;;16.80;12.80;;;;;;;9.86;100.00;99848.95;180381;1264;58233;-85
2023/04/15 21:09:41;;;;;;;22.30;12.80;;;;;;;9.79;100.00;99850.96;180578;1264;44258;-87
2023/04/15 21:13:47;;;;;;;19.80;13.30;;;;;;;9.74;100.00;99856.21;180584;1264;44095;-88
2023/04/15 21:17:50;;;;;;;20.20;13.80;;;;;;;9.66;100.00;99861.23;180684;1262;44163;-88
2023/04/15 21:21:53;;;;;;;16.80;13.00;;;;;;;9.63;100.00;99864.39;180616;1265;43840;-87
2023/04/15 21:25:57;;;;;;;20.50;13.70;;;;;;;9.67;100.00;99867.39;180647;1262;59616;-87
2023/04/15 21:30:01;;;;;;;19.50;12.80;;;;;;;9.78;100.00;99865.08;180562;1262;44116;-87
2023/04/15 21:34:04;;;;;;;19.30;14.00;;;;;;;9.84;100.00;99868.44;180643;1263;44088;-88
2023/04/15 21:38:08;;;;;;;26.20;16.30;;;;;;;9.94;100.00;99874.48;180803;1263;44065;-86
2023/04/15 21:42:11;;;;;;;14.40;11.30;;;;;;;9.99;100.00;99877.26;180543;1264;43928;-86
2023/04/15 21:46:14;;;;;;;15.50;13.10;;;;;;;10.06;99.95;99881.77;180630;1262;57937;-87
2023/04/15 21:50:27;;;;;;;29.60;19.60;;;;;;;10.10;100.00;99885.52;180637;1264;43809;-87
2023/04/15 21:54:31;;;;;;;18.90;12.90;;;;;;;10.04;100.00;99884.11;180538;1262;43817;-86
2023/04/15 21:58:35;;;;;;;25.20;16.00;;;;;;;10.00;99.76;99881.94;180708;1262;43794;-88
2023/04/15 22:02:38;;;;;;;32.90;14.30;;;;;;;9.99;99.30;99888.45;180476;1263;44005;-87
2023/04/15 22:06:42;;;;;;;29.80;17.20;;;;;;;9.92;98.36;99886.54;180661;1262;59604;-87
2023/04/15 22:10:45;;;;;;;24.30;15.10;;;;;;;9.84;98.93;99896.37;180529;1263;44106;-88
2023/04/15 22:14:48;;;;;;;23.80;15.30;;;;;;;9.76;98.88;99896.21;180768;1264;43891;-87
2023/04/15 22:18:52;;;;;;;24.00;15.40;;;;;;;9.75;99.09;99902.33;180712;1262;43938;-87
2023/04/15 22:22:55;;;;;;;18.40;14.90;;;;;;;9.68;98.04;99905.52;180702;1263;44085;-87
2023/04/15 22:27:00;;;;;;;21.20;13.90;;;;;;;9.59;98.03;99911.09;180478;1262;58669;-88
2023/04/15 22:31:04;;;;;;;21.00;14.10;;;;;;;9.45;99.14;99919.47;180546;1263;44143;-87
2023/04/15 22:35:08;;;;;;;21.70;13.00;;;;;;;9.26;97.70;99923.48;180594;1264;44412;-87
2023/04/15 22:39:11;;;;;;;27.40;15.50;;;;;;;9.09;96.65;99925.25;180557;1263;44459;-87
2023/04/15 22:43:15;;;;;;;16.80;12.80;;;;;;;9.02;96.63;99928.26;180611;1262;43773;-87